Time;durP1;ratioP1;P1;durP2;ratioP2;P2;SDS_P1;SDS_P2;PMS_P1;PMS_P2;Temp;Humidity;BMP_temperature;BMP_pressure;BME280_temperature;BME280_humidity;BME280_pressure;Samples;Min_cycle;Max_cycle;Signal;HPM_P1;HPM_P2
2021/12/27 00:02:11;;;;;;;22.25;13.98;;;-0.30;99.90;;;;;;4998985;28;20116;-78
2021/12/27 00:04:37;;;;;;;20.85;13.73;;;-0.40;99.90;;;;;;4992602;28;20052;-78
2021/12/27 00:07:06;;;;;;;22.30;13.10;;;-0.40;99.90;;;;;;4994358;28;20038;-79
2021/12/27 00:09:32;;;;;;;22.58;13.57;;;-0.40;99.90;;;;;;5002064;28;20033;-79
2021/12/27 00:11:57;;;;;;;21.25;13.63;;;-0.40;99.90;;;;;;4993746;28;20044;-78
2021/12/27 00:14:23;;;;;;;21.15;14.25;;;-0.40;99.90;;;;;;4998494;28;20045;-79
2021/12/27 00:16:49;;;;;;;22.25;14.10;;;-0.40;99.90;;;;;;5001832;28;20037;-79
2021/12/27 00:19:14;;;;;;;22.83;13.65;;;-0.50;99.90;;;;;;5001633;28;20029;-79
2021/12/27 00:21:40;;;;;;;19.85;13.10;;;-0.50;99.90;;;;;;4994812;28;20041;-79
2021/12/27 00:24:06;;;;;;;19.85;13.63;;;-0.50;99.90;;;;;;4984187;28;20068;-79
2021/12/27 00:26:32;;;;;;;22.23;14.10;;;-0.60;99.90;;;;;;4982306;28;20145;-79
2021/12/27 00:28:58;;;;;;;25.58;13.85;;;-0.70;99.90;;;;;;4987527;28;20085;-78
2021/12/27 00:31:23;;;;;;;20.27;13.43;;;-0.70;99.90;;;;;;4993248;28;20493;-78
2021/12/27 00:33:49;;;;;;;21.98;13.88;;;-0.70;99.90;;;;;;4984277;28;20045;-79
2021/12/27 00:36:15;;;;;;;21.95;13.68;;;-0.70;99.90;;;;;;5005829;28;20124;-79
2021/12/27 00:38:41;;;;;;;23.10;14.73;;;-0.70;99.90;;;;;;5003098;28;20082;-79
2021/12/27 00:41:06;;;;;;;22.17;14.10;;;-0.70;99.90;;;;;;5004345;28;20033;-79
2021/12/27 00:43:32;;;;;;;23.13;14.60;;;-0.70;99.90;;;;;;5003991;28;20095;-78
2021/12/27 00:45:58;;;;;;;23.08;14.32;;;-0.70;99.90;;;;;;5006342;28;20088;-78
2021/12/27 00:48:24;;;;;;;24.88;15.05;;;-0.70;99.90;;;;;;5002828;28;20486;-78
2021/12/27 00:50:50;;;;;;;21.50;14.70;;;-0.70;99.90;;;;;;5004751;28;20048;-78
2021/12/27 00:53:16;;;;;;;23.50;14.43;;;-0.70;99.90;;;;;;5002929;28;20037;-79
2021/12/27 00:55:42;;;;;;;24.90;14.68;;;-0.60;99.90;;;;;;5003105;28;20041;-78
2021/12/27 00:58:08;;;;;;;22.15;14.43;;;-0.70;99.90;;;;;;5004573;28;20048;-78
2021/12/27 01:00:34;;;;;;;24.23;14.50;;;-0.70;99.90;;;;;;5002967;28;20136;-79
2021/12/27 01:03:00;;;;;;;23.35;14.27;;;-0.70;99.90;;;;;;4994371;28;20108;-79
2021/12/27 01:05:29;;;;;;;24.27;14.32;;;-0.60;99.90;;;;;;4987681;28;20041;-79
2021/12/27 01:07:55;;;;;;;21.90;14.80;;;-0.60;99.90;;;;;;4985001;28;20765;-78
2021/12/27 01:10:59;;;;;;;23.85;14.20;;;-0.60;99.90;;;;;;5017783;28;20041;-78
2021/12/27 01:13:36;;;;;;;24.42;15.40;;;-0.60;99.90;;;;;;4997863;28;20128;-78
2021/12/27 01:16:12;;;;;;;28.67;15.82;;;-0.60;99.90;;;;;;5000343;28;20080;-78
2021/12/27 01:18:49;;;;;;;24.42;15.20;;;-0.60;99.90;;;;;;4986908;28;20440;-78
2021/12/27 01:21:18;;;;;;;23.23;14.80;;;-0.60;99.90;;;;;;5001880;28;20126;-78
2021/12/27 01:23:44;;;;;;;20.60;13.70;;;-0.60;99.90;;;;;;5001398;28;20466;-79
2021/12/27 01:26:10;;;;;;;22.13;14.65;;;-0.60;99.90;;;;;;5016736;28;20064;-79
2021/12/27 01:28:37;;;;;;;21.67;14.98;;;-0.60;99.90;;;;;;5003108;28;20071;-79
2021/12/27 01:31:03;;;;;;;21.58;14.30;;;-0.50;99.90;;;;;;5003593;28;20611;-79
2021/12/27 01:33:31;;;;;;;24.15;14.50;;;-0.50;99.90;;;;;;4990703;28;20053;-79
2021/12/27 01:35:56;;;;;;;25.98;15.63;;;-0.50;99.90;;;;;;5017288;28;20044;-78
2021/12/27 01:38:23;;;;;;;22.90;15.10;;;-0.50;99.90;;;;;;4993921;28;20440;-79
2021/12/27 01:40:51;;;;;;;24.00;15.20;;;-0.50;99.90;;;;;;4991608;28;20147;-78
2021/12/27 01:43:25;;;;;;;20.95;14.48;;;-0.50;99.90;;;;;;4975362;28;20041;-79
2021/12/27 01:45:55;;;;;;;23.10;15.55;;;-0.40;99.90;;;;;;4984377;28;20034;-78
2021/12/27 01:48:30;;;;;;;22.77;15.63;;;-0.50;99.90;;;;;;4984162;28;20037;-78
2021/12/27 01:50:57;;;;;;;23.30;14.95;;;-0.50;99.90;;;;;;5004413;28;20046;-78
2021/12/27 01:53:25;;;;;;;21.60;14.18;;;-0.40;99.90;;;;;;5009231;28;20044;-78
2021/12/27 01:55:52;;;;;;;23.08;15.40;;;-0.40;99.90;;;;;;4979070;28;20116;-79
2021/12/27 01:58:19;;;;;;;25.02;16.20;;;-0.40;99.90;;;;;;4992372;28;20042;-78
2021/12/27 02:00:50;;;;;;;22.55;14.57;;;-0.40;99.90;;;;;;4978619;28;20280;-78
2021/12/27 02:03:18;;;;;;;26.00;15.57;;;-0.40;99.90;;;;;;4992532;28;20187;-79
2021/12/27 02:05:44;;;;;;;22.85;14.75;;;-0.40;99.90;;;;;;4996924;28;20393;-78
2021/12/27 02:08:11;;;;;;;22.75;14.73;;;-0.40;99.90;;;;;;4989618;28;20037;-79
2021/12/27 02:10:37;;;;;;;25.75;15.73;;;-0.40;99.90;;;;;;4991933;28;20743;-79
2021/12/27 02:13:03;;;;;;;25.23;14.85;;;-0.40;99.90;;;;;;4996466;28;20040;-79
2021/12/27 02:15:29;;;;;;;23.17;14.88;;;-0.40;99.90;;;;;;5016303;28;20042;-79
2021/12/27 02:17:55;;;;;;;23.98;15.05;;;-0.40;99.90;;;;;;4978126;28;20044;-78
2021/12/27 02:20:28;;;;;;;23.42;15.18;;;-0.40;99.90;;;;;;4979417;28;20029;-78
2021/12/27 02:22:59;;;;;;;22.55;14.63;;;-0.40;99.90;;;;;;4995521;28;20048;-78
2021/12/27 02:25:27;;;;;;;25.42;15.90;;;-0.40;99.90;;;;;;5007433;28;20421;-79
2021/12/27 02:27:54;;;;;;;25.52;15.73;;;-0.30;99.90;;;;;;4996157;28;20595;-78
2021/12/27 02:30:22;;;;;;;26.63;16.33;;;-0.30;99.90;;;;;;4997920;28;20069;-78
2021/12/27 02:33:00;;;;;;;24.10;15.52;;;-0.30;99.90;;;;;;5013564;28;20607;-79
2021/12/27 02:35:45;;;;;;;24.02;15.27;;;-0.30;99.90;;;;;;4997405;28;20137;-79
2021/12/27 02:38:16;;;;;;;;;;;-0.30;99.90;;;;;;5002034;28;20040;-79
2021/12/27 02:40:43;;;;;;;25.17;15.73;;;-0.30;99.90;;;;;;4994278;28;20022;-78
2021/12/27 02:43:11;;;;;;;23.00;16.35;;;-0.30;99.90;;;;;;4992826;28;20046;-79
2021/12/27 02:45:47;;;;;;;25.08;16.45;;;-0.20;99.90;;;;;;4994671;28;20128;-79
2021/12/27 02:48:15;;;;;;;29.08;15.98;;;-0.20;99.90;;;;;;4991326;28;20048;-79
2021/12/27 02:50:43;;;;;;;24.20;15.75;;;-0.30;99.90;;;;;;5010212;28;20120;-79
2021/12/27 02:53:10;;;;;;;24.98;17.63;;;-0.30;99.90;;;;;;4992684;28;20125;-79
2021/12/27 02:55:36;;;;;;;25.67;16.75;;;-0.20;99.90;;;;;;5016122;28;20145;-79
2021/12/27 02:58:02;;;;;;;26.00;16.45;;;-0.20;99.90;;;;;;5018863;28;20394;-79
2021/12/27 03:00:32;;;;;;;26.98;17.17;;;-0.20;99.90;;;;;;5000732;28;20041;-79
2021/12/27 03:02:58;;;;;;;26.60;17.10;;;-0.20;99.90;;;;;;5000831;28;20037;-79
2021/12/27 03:05:26;;;;;;;28.70;16.58;;;-0.20;99.90;;;;;;4979632;28;20064;-78
2021/12/27 03:07:53;;;;;;;26.40;17.10;;;-0.20;99.90;;;;;;5016359;28;20038;-78
2021/12/27 03:10:24;;;;;;;24.83;17.05;;;-0.10;99.90;;;;;;4993860;28;20046;-79
2021/12/27 03:12:51;;;;;;;25.42;17.73;;;-0.10;99.90;;;;;;4999628;28;20045;-78
2021/12/27 03:15:19;;;;;;;28.08;16.52;;;-0.20;99.90;;;;;;5000538;28;20048;-78
2021/12/27 03:17:47;;;;;;;25.40;16.83;;;-0.10;99.90;;;;;;4984184;28;20042;-79
2021/12/27 03:20:16;;;;;;;25.70;16.92;;;-0.10;99.90;;;;;;4978661;28;20395;-78
2021/12/27 03:22:43;;;;;;;27.73;17.40;;;-0.10;99.90;;;;;;5014631;28;20223;-78
2021/12/27 03:25:11;;;;;;;26.63;16.95;;;-0.10;99.90;;;;;;4999601;28;20045;-79
2021/12/27 03:27:38;;;;;;;26.48;16.08;;;-0.10;99.90;;;;;;5011971;28;20074;-78
2021/12/27 03:30:07;;;;;;;27.60;17.58;;;-0.10;99.90;;;;;;4983519;28;20091;-79
2021/12/27 03:32:34;;;;;;;25.73;15.98;;;0.00;99.90;;;;;;5000372;28;20045;-79
2021/12/27 03:35:10;;;;;;;26.48;17.55;;;0.00;99.90;;;;;;5019780;28;20040;-79
2021/12/27 03:37:38;;;;;;;27.88;16.60;;;0.00;99.90;;;;;;5012847;28;20033;-79
2021/12/27 03:40:07;;;;;;;27.17;16.63;;;0.00;99.90;;;;;;5018945;28;20396;-78
2021/12/27 03:42:32;;;;;;;28.02;17.55;;;0.00;99.90;;;;;;5018064;28;20089;-79
2021/12/27 03:44:58;;;;;;;27.50;17.60;;;0.00;99.90;;;;;;5018280;28;20182;-79
2021/12/27 03:47:27;;;;;;;25.02;16.65;;;0.00;99.90;;;;;;5013850;28;20084;-79
2021/12/27 03:49:53;;;;;;;27.13;17.50;;;-0.10;99.90;;;;;;5013685;28;20120;-79
2021/12/27 03:52:18;;;;;;;26.63;17.25;;;0.00;99.90;;;;;;5003760;28;20045;-79
2021/12/27 03:54:44;;;;;;;25.77;16.98;;;0.00;99.90;;;;;;5019330;28;20037;-78
2021/12/27 03:57:10;;;;;;;27.98;17.02;;;0.00;99.90;;;;;;5014234;28;20095;-78
2021/12/27 04:02:22;;;;;;;26.58;17.50;;;0.00;99.90;;;;;;4982053;28;20041;-79
2021/12/27 04:04:48;;;;;;;25.88;17.50;;;0.00;99.90;;;;;;5004045;28;20041;-79
2021/12/27 04:07:13;;;;;;;26.08;16.42;;;0.00;99.90;;;;;;5012620;28;20037;-78
2021/12/27 04:09:39;;;;;;;27.67;16.77;;;0.10;99.90;;;;;;5007247;28;20381;-79
2021/12/27 04:12:09;;;;;;;26.50;17.70;;;0.10;99.90;;;;;;4990281;28;20061;-79
2021/12/27 04:14:34;;;;;;;27.08;17.73;;;0.00;99.90;;;;;;5001541;28;20662;-79
2021/12/27 04:17:00;;;;;;;30.33;18.30;;;0.10;99.90;;;;;;5019401;28;20124;-78
2021/12/27 04:19:26;;;;;;;27.23;17.27;;;0.10;99.90;;;;;;5019431;28;20040;-79
2021/12/27 04:21:51;;;;;;;28.35;18.08;;;0.20;99.90;;;;;;5013817;28;20033;-78
2021/12/27 04:24:17;;;;;;;28.05;18.00;;;0.10;99.90;;;;;;5018353;28;20495;-78
2021/12/27 04:26:43;;;;;;;27.90;18.45;;;0.20;99.90;;;;;;4993666;28;20131;-79
2021/12/27 04:29:08;;;;;;;26.73;17.58;;;0.20;99.90;;;;;;5032241;28;20128;-78
2021/12/27 04:31:34;;;;;;;29.60;18.10;;;0.20;99.90;;;;;;5010722;28;20389;-79
2021/12/27 04:34:00;;;;;;;28.30;17.45;;;0.20;99.90;;;;;;5004556;28;20215;-78
2021/12/27 04:36:25;;;;;;;26.30;17.25;;;0.20;99.90;;;;;;5006442;28;20229;-79
2021/12/27 04:38:51;;;;;;;26.08;16.83;;;0.20;99.90;;;;;;5002990;28;20036;-79
2021/12/27 04:41:20;;;;;;;26.58;17.90;;;0.20;99.90;;;;;;5001392;28;20128;-79
2021/12/27 04:43:45;;;;;;;24.55;17.02;;;0.20;99.90;;;;;;5003930;28;20073;-79
2021/12/27 04:46:11;;;;;;;26.73;18.27;;;0.30;99.90;;;;;;5001801;28;20092;-79
2021/12/27 04:48:37;;;;;;;27.67;17.65;;;0.30;99.90;;;;;;5005907;28;20040;-79
2021/12/27 04:51:03;;;;;;;27.35;17.70;;;0.30;99.90;;;;;;4986833;28;20124;-79
2021/12/27 04:53:29;;;;;;;28.77;18.52;;;0.30;99.90;;;;;;4987859;28;20197;-79
2021/12/27 04:55:54;;;;;;;28.48;18.10;;;0.30;99.90;;;;;;5003093;28;20473;-79
2021/12/27 04:58:23;;;;;;;28.27;16.73;;;0.30;99.90;;;;;;5003969;28;20033;-79
2021/12/27 05:00:50;;;;;;;28.52;18.95;;;0.30;99.90;;;;;;4988474;28;20045;-79
2021/12/27 05:03:16;;;;;;;28.52;17.13;;;0.30;99.90;;;;;;5005186;28;20048;-78
2021/12/27 05:05:45;;;;;;;29.65;18.65;;;0.40;99.90;;;;;;4987602;28;20419;-78
2021/12/27 05:08:11;;;;;;;31.15;19.05;;;0.30;99.90;;;;;;5004171;28;20076;-79
2021/12/27 05:10:38;;;;;;;28.30;18.10;;;0.40;99.90;;;;;;4984391;28;20151;-79
2021/12/27 05:13:04;;;;;;;28.30;17.85;;;0.30;99.90;;;;;;5003117;28;20049;-79
2021/12/27 05:15:30;;;;;;;27.42;17.90;;;0.40;99.90;;;;;;5003665;28;20041;-79
2021/12/27 05:17:56;;;;;;;25.30;17.20;;;0.40;99.90;;;;;;4991893;28;20033;-79
2021/12/27 05:20:22;;;;;;;27.67;17.95;;;0.40;99.90;;;;;;5002461;28;20033;-79
2021/12/27 05:22:48;;;;;;;29.00;18.15;;;0.40;99.90;;;;;;4987489;28;20044;-79
2021/12/27 05:25:16;;;;;;;30.88;19.27;;;0.40;99.90;;;;;;5005569;28;20735;-79
2021/12/27 05:27:43;;;;;;;28.15;18.05;;;0.40;99.90;;;;;;5002416;28;20041;-79
2021/12/27 05:30:11;;;;;;;29.67;18.63;;;0.40;99.90;;;;;;5002487;28;20094;-78
2021/12/27 05:32:40;;;;;;;30.58;18.55;;;0.40;99.90;;;;;;4986501;28;20141;-79
2021/12/27 05:35:08;;;;;;;28.48;18.45;;;0.40;99.90;;;;;;4995340;28;20037;-78
2021/12/27 05:37:34;;;;;;;32.95;19.33;;;0.40;99.90;;;;;;4996066;28;20307;-79
2021/12/27 05:40:04;;;;;;;30.23;19.23;;;0.40;99.90;;;;;;4991503;28;20033;-79
2021/12/27 05:42:35;;;;;;;32.95;19.35;;;0.40;99.90;;;;;;4995950;28;20290;-78
2021/12/27 05:45:05;;;;;;;33.70;20.25;;;0.30;99.90;;;;;;4996927;28;20425;-79
2021/12/27 05:47:31;;;;;;;34.17;19.60;;;0.40;99.90;;;;;;4995562;28;20606;-79
2021/12/27 05:50:00;;;;;;;32.72;20.40;;;0.30;99.90;;;;;;4980034;28;20037;-78
2021/12/27 05:52:26;;;;;;;35.30;20.50;;;0.40;99.90;;;;;;5000415;28;20760;-79
2021/12/27 05:54:51;;;;;;;29.35;19.58;;;0.40;99.90;;;;;;4995055;28;20045;-78
2021/12/27 05:57:18;;;;;;;37.15;20.27;;;0.50;99.90;;;;;;4997863;28;20041;-79
2021/12/27 05:59:44;;;;;;;36.10;19.58;;;0.40;99.90;;;;;;5013746;28;20201;-79
2021/12/27 06:02:09;;;;;;;34.15;20.70;;;0.50;99.90;;;;;;4997617;28;20377;-78
2021/12/27 06:04:35;;;;;;;33.38;19.90;;;0.50;99.90;;;;;;5000306;28;20390;-79
2021/12/27 06:07:01;;;;;;;33.10;20.30;;;0.50;99.90;;;;;;4997095;28;20682;-79
2021/12/27 06:09:30;;;;;;;32.88;20.35;;;0.50;99.90;;;;;;4989579;28;20045;-78
2021/12/27 06:11:56;;;;;;;37.20;20.48;;;0.50;99.90;;;;;;4989862;28;20472;-79
2021/12/27 06:14:21;;;;;;;36.92;20.77;;;0.50;99.90;;;;;;4992338;28;20124;-78
2021/12/27 06:16:49;;;;;;;37.42;20.80;;;0.50;99.90;;;;;;4998399;28;20095;-79
2021/12/27 06:19:17;;;;;;;35.15;22.15;;;0.60;99.90;;;;;;4995693;28;20042;-78
2021/12/27 06:21:45;;;;;;;33.85;20.90;;;0.60;99.90;;;;;;4975221;28;20102;-79
2021/12/27 06:24:11;;;;;;;33.60;20.40;;;0.60;99.90;;;;;;4975023;28;20038;-79
2021/12/27 06:26:36;;;;;;;38.30;20.80;;;0.60;99.90;;;;;;4976611;28;20041;-78
2021/12/27 06:29:02;;;;;;;37.15;20.45;;;0.60;99.90;;;;;;4990256;28;20067;-79
2021/12/27 06:31:28;;;;;;;37.78;22.50;;;0.60;99.90;;;;;;5001304;28;20037;-79
2021/12/27 06:33:53;;;;;;;31.60;21.55;;;0.60;99.90;;;;;;4994726;28;20538;-79
2021/12/27 06:36:19;;;;;;;36.78;21.88;;;0.60;99.90;;;;;;4999420;28;20456;-78
2021/12/27 06:38:48;;;;;;;38.47;22.05;;;0.60;99.90;;;;;;5014401;28;20415;-79
2021/12/27 06:41:13;;;;;;;39.50;21.73;;;0.70;99.90;;;;;;5011991;28;20408;-79
2021/12/27 06:43:39;;;;;;;36.55;22.58;;;0.70;99.90;;;;;;4997417;28;20037;-79
2021/12/27 06:46:05;;;;;;;38.55;21.85;;;0.70;99.90;;;;;;5022354;28;20040;-79
2021/12/27 06:48:31;;;;;;;36.83;21.45;;;0.70;99.90;;;;;;4996840;28;20129;-79
2021/12/27 06:50:56;;;;;;;39.60;21.23;;;0.70;99.90;;;;;;5014833;28;20077;-79
2021/12/27 06:53:23;;;;;;;41.55;22.10;;;0.70;99.90;;;;;;5039676;28;20435;-79
2021/12/27 06:55:49;;;;;;;37.88;20.95;;;0.70;99.90;;;;;;5010320;28;20480;-79
2021/12/27 06:58:15;;;;;;;38.60;22.23;;;0.80;99.90;;;;;;5010423;28;20512;-79
2021/12/27 07:00:42;;;;;;;40.63;22.13;;;0.70;99.90;;;;;;5037574;28;20065;-79
2021/12/27 07:03:08;;;;;;;37.33;22.17;;;0.80;99.90;;;;;;5005303;28;20045;-79
2021/12/27 07:05:33;;;;;;;35.80;21.95;;;0.70;99.90;;;;;;5022237;28;20107;-79
2021/12/27 07:07:59;;;;;;;35.03;22.48;;;0.80;99.90;;;;;;5018060;28;20106;-79
2021/12/27 07:10:25;;;;;;;45.85;24.38;;;0.80;99.90;;;;;;5014699;28;20190;-79
2021/12/27 07:12:51;;;;;;;42.38;23.20;;;0.70;99.90;;;;;;5017393;28;20037;-79
2021/12/27 07:15:16;;;;;;;43.50;22.88;;;0.80;99.90;;;;;;5015611;28;20040;-79
2021/12/27 07:17:42;;;;;;;43.75;22.40;;;0.80;99.90;;;;;;5017198;28;20375;-79
2021/12/27 07:20:09;;;;;;;43.17;21.83;;;0.80;99.90;;;;;;5036710;28;20040;-79
2021/12/27 07:22:35;;;;;;;44.88;24.23;;;0.90;99.90;;;;;;5015208;28;20049;-79
2021/12/27 07:25:02;;;;;;;45.63;23.45;;;0.90;99.90;;;;;;5018998;28;20029;-79
2021/12/27 07:27:28;;;;;;;52.67;25.48;;;0.90;99.90;;;;;;5003655;28;20047;-79
2021/12/27 07:29:54;;;;;;;48.08;25.05;;;0.90;99.90;;;;;;5018784;28;20044;-79
2021/12/27 07:32:20;;;;;;;47.22;23.75;;;0.80;99.90;;;;;;5012663;28;20056;-79
2021/12/27 07:34:51;;;;;;;49.83;24.05;;;0.90;99.90;;;;;;5019644;28;20045;-79
2021/12/27 07:37:17;;;;;;;45.72;24.60;;;0.90;99.90;;;;;;5019032;28;20075;-79
2021/12/27 07:39:46;;;;;;;53.65;25.05;;;0.90;99.90;;;;;;5012849;28;20956;-79
2021/12/27 07:42:12;;;;;;;44.08;25.02;;;0.90;99.90;;;;;;5015644;28;20045;-79
2021/12/27 07:44:38;;;;;;;43.35;24.25;;;0.90;99.90;;;;;;5012817;28;20395;-79
2021/12/27 07:47:04;;;;;;;49.10;26.02;;;1.00;99.90;;;;;;5019534;28;20076;-79
2021/12/27 07:49:30;;;;;;;47.83;25.55;;;0.90;99.90;;;;;;5030304;28;20104;-79
2021/12/27 07:51:55;;;;;;;44.25;24.63;;;1.00;99.90;;;;;;5015768;28;20471;-79
2021/12/27 07:54:21;;;;;;;43.45;24.52;;;0.90;99.90;;;;;;5017891;28;20041;-79
2021/12/27 07:56:47;;;;;;;48.78;25.25;;;1.00;99.90;;;;;;5014552;28;20045;-78
2021/12/27 07:59:12;;;;;;;48.33;25.75;;;1.00;99.90;;;;;;5014045;28;20041;-79
2021/12/27 08:01:40;;;;;;;47.28;25.50;;;1.00;99.90;;;;;;5016977;28;20156;-79
2021/12/27 08:04:06;;;;;;;45.35;24.75;;;1.00;99.90;;;;;;5002352;28;20135;-79
2021/12/27 08:06:32;;;;;;;47.10;23.48;;;1.00;99.90;;;;;;4994556;28;20120;-79
2021/12/27 08:08:58;;;;;;;44.88;25.00;;;1.10;99.90;;;;;;4997537;28;20040;-79
2021/12/27 08:11:25;;;;;;;47.95;25.42;;;1.10;99.90;;;;;;5012592;28;20044;-79
2021/12/27 08:13:51;;;;;;;48.50;25.55;;;1.00;99.90;;;;;;4997222;28;20045;-79
2021/12/27 08:16:17;;;;;;;47.88;25.48;;;1.10;99.90;;;;;;5005917;28;20041;-79
2021/12/27 08:18:46;;;;;;;46.28;24.40;;;1.10;99.90;;;;;;5021620;28;20029;-79
2021/12/27 08:21:13;;;;;;;42.03;23.90;;;1.10;99.90;;;;;;5017221;28;20073;-79
2021/12/27 08:23:39;;;;;;;50.15;24.83;;;1.10;99.90;;;;;;5010035;28;20284;-79
2021/12/27 08:26:05;;;;;;;48.90;25.50;;;1.10;99.90;;;;;;5005450;28;20306;-79
2021/12/27 08:28:30;;;;;;;47.20;25.23;;;1.10;99.90;;;;;;5002669;28;20060;-79
2021/12/27 08:30:56;;;;;;;44.83;25.63;;;1.10;99.90;;;;;;5017487;28;20095;-79
2021/12/27 08:33:22;;;;;;;43.65;23.73;;;1.20;99.90;;;;;;5005435;28;20091;-79
2021/12/27 08:35:48;;;;;;;48.00;25.23;;;1.20;99.90;;;;;;4988770;28;20037;-79
2021/12/27 08:38:18;;;;;;;47.38;24.58;;;1.20;99.90;;;;;;5002932;28;20038;-79
2021/12/27 08:40:44;;;;;;;50.15;25.13;;;1.20;99.90;;;;;;5003028;28;20488;-79
2021/12/27 08:43:10;;;;;;;51.40;26.02;;;1.20;99.90;;;;;;5006062;28;20049;-79
2021/12/27 08:45:36;;;;;;;49.13;25.40;;;1.30;99.90;;;;;;5002025;28;20055;-79
2021/12/27 08:48:02;;;;;;;50.35;25.88;;;1.20;99.90;;;;;;5003136;28;20064;-79
2021/12/27 08:50:28;;;;;;;49.80;25.10;;;1.30;99.90;;;;;;5002292;28;20073;-79
2021/12/27 08:52:57;;;;;;;56.40;25.92;;;1.30;99.90;;;;;;5003583;28;20037;-79
2021/12/27 08:55:22;;;;;;;53.60;25.70;;;1.40;99.90;;;;;;5001573;28;20036;-79
2021/12/27 08:57:48;;;;;;;53.13;25.30;;;1.50;99.90;;;;;;5003246;28;20392;-79
2021/12/27 09:00:16;;;;;;;46.45;24.88;;;1.40;99.90;;;;;;5007209;28;20221;-79
2021/12/27 09:02:48;;;;;;;52.67;25.67;;;1.50;99.90;;;;;;4987899;28;20037;-79
2021/12/27 09:05:14;;;;;;;56.30;26.55;;;1.50;99.90;;;;;;4988381;28;20339;-79
2021/12/27 09:07:40;;;;;;;50.70;25.42;;;1.50;99.90;;;;;;5001893;28;20045;-79
2021/12/27 09:10:06;;;;;;;53.25;24.17;;;1.50;99.90;;;;;;5005611;28;20590;-79
2021/12/27 09:12:32;;;;;;;63.00;26.45;;;1.60;99.90;;;;;;5002435;28;20029;-79
2021/12/27 09:14:57;;;;;;;50.67;23.30;;;1.60;99.90;;;;;;4988732;28;20095;-79
2021/12/27 09:17:23;;;;;;;49.20;24.67;;;1.60;99.90;;;;;;5005872;28;20044;-79
2021/12/27 09:19:49;;;;;;;57.55;25.27;;;1.60;99.90;;;;;;5003257;28;20040;-79
2021/12/27 09:22:15;;;;;;;62.15;26.17;;;1.60;99.90;;;;;;5001087;28;20296;-79
2021/12/27 09:24:44;;;;;;;57.97;25.77;;;1.60;99.90;;;;;;5002581;28;20095;-79
2021/12/27 09:27:09;;;;;;;58.58;25.45;;;1.70;99.90;;;;;;5001493;28;20179;-79
2021/12/27 09:29:35;;;;;;;69.22;27.20;;;1.60;99.90;;;;;;4994625;28;20590;-79
2021/12/27 09:32:01;;;;;;;55.63;25.00;;;1.70;99.90;;;;;;5001050;28;20063;-79
2021/12/27 09:34:27;;;;;;;60.15;25.77;;;1.60;99.90;;;;;;5013119;28;20060;-79
2021/12/27 09:36:53;;;;;;;53.88;25.92;;;1.70;99.90;;;;;;5000110;28;20029;-79
2021/12/27 09:39:18;;;;;;;62.63;26.35;;;1.80;99.90;;;;;;4998952;28;20412;-79
2021/12/27 09:41:45;;;;;;;68.78;26.85;;;1.70;99.90;;;;;;5001344;28;20044;-79
2021/12/27 09:44:10;;;;;;;70.10;27.52;;;1.70;99.90;;;;;;5011693;28;20056;-79
2021/12/27 09:46:36;;;;;;;60.95;27.05;;;1.80;99.90;;;;;;4993947;28;20040;-79
2021/12/27 09:49:07;;;;;;;62.03;27.30;;;1.80;99.90;;;;;;5019803;28;20150;-79
2021/12/27 09:51:37;;;;;;;54.85;26.08;;;1.80;99.90;;;;;;5002828;28;20037;-79
2021/12/27 09:54:04;;;;;;;60.45;25.33;;;1.80;99.90;;;;;;5001548;28;20626;-79
2021/12/27 09:56:30;;;;;;;68.55;25.95;;;1.80;99.90;;;;;;5007404;28;20124;-79
2021/12/27 09:58:56;;;;;;;67.10;27.15;;;1.80;99.90;;;;;;5009006;28;20464;-80
2021/12/27 10:01:22;;;;;;;61.10;27.00;;;1.90;99.90;;;;;;5013752;28;20083;-79
2021/12/27 10:03:52;;;;;;;64.20;25.90;;;1.90;99.90;;;;;;4987328;28;20041;-79
2021/12/27 10:06:20;;;;;;;76.57;27.75;;;2.00;99.90;;;;;;5015719;28;20394;-79
2021/12/27 10:08:52;;;;;;;71.25;28.63;;;2.00;99.90;;;;;;5013489;28;20124;-79
2021/12/27 10:11:27;;;;;;;71.75;27.52;;;2.00;99.90;;;;;;5017072;28;20033;-79
2021/12/27 10:14:04;;;;;;;66.38;27.67;;;2.00;99.90;;;;;;5023246;28;20116;-79
2021/12/27 10:16:32;;;;;;;87.38;28.60;;;2.10;99.90;;;;;;5035871;28;20098;-79
2021/12/27 10:19:00;;;;;;;84.22;29.55;;;2.10;99.90;;;;;;4992052;28;20033;-79
2021/12/27 10:21:26;;;;;;;74.03;28.55;;;2.10;99.90;;;;;;5009394;28;20025;-79
2021/12/27 10:24:13;;;;;;;67.00;27.02;;;2.10;99.90;;;;;;5007737;28;20112;-79
2021/12/27 10:26:40;;;;;;;68.68;27.40;;;2.10;99.90;;;;;;5000140;28;20499;-79
2021/12/27 10:29:13;;;;;;;85.22;29.90;;;2.20;99.90;;;;;;5010063;28;20107;-79
2021/12/27 10:31:54;;;;;;;77.00;28.40;;;2.20;99.90;;;;;;5002735;28;20139;-79
2021/12/27 10:34:23;;;;;;;96.85;30.75;;;2.30;99.90;;;;;;4990373;28;20151;-79
2021/12/27 10:37:39;;;;;;;86.03;29.45;;;2.30;99.90;;;;;;4998633;28;20500;-79
2021/12/27 10:40:08;;;;;;;76.38;28.48;;;2.40;99.90;;;;;;4943693;28;20778;-79
2021/12/27 10:42:43;;;;;;;89.50;30.48;;;2.50;99.90;;;;;;4910687;29;20344;-79
2021/12/27 10:45:16;;;;;;;75.30;30.52;;;2.60;99.90;;;;;;4952334;28;20073;-79
2021/12/27 10:47:43;;;;;;;72.18;28.50;;;2.50;99.90;;;;;;5005537;28;20033;-79
2021/12/27 10:50:11;;;;;;;94.10;30.58;;;2.60;99.90;;;;;;5010687;28;20036;-79
2021/12/27 10:52:55;;;;;;;75.97;28.65;;;2.60;99.90;;;;;;4976827;28;20069;-79
2021/12/27 10:55:43;;;;;;;82.40;29.95;;;2.60;99.90;;;;;;5003948;28;20081;-79
2021/12/27 10:58:23;;;;;;;80.60;28.08;;;2.60;99.90;;;;;;5022589;28;20076;-79
2021/12/27 11:00:57;;;;;;;77.68;28.45;;;2.80;99.90;;;;;;4979156;28;20576;-79
2021/12/27 11:03:37;;;;;;;79.32;29.05;;;2.80;99.90;;;;;;4999146;28;20121;-79
2021/12/27 11:06:06;;;;;;;79.97;28.88;;;2.80;99.90;;;;;;4984162;28;20046;-79
2021/12/27 11:08:34;;;;;;;82.80;28.30;;;2.90;99.90;;;;;;4990028;28;20443;-79
2021/12/27 11:11:00;;;;;;;109.07;29.58;;;2.90;99.90;;;;;;4993772;28;20049;-79
2021/12/27 11:13:27;;;;;;;96.80;28.88;;;2.80;99.90;;;;;;5002941;28;20465;-79
2021/12/27 11:15:53;;;;;;;83.93;29.23;;;2.80;99.90;;;;;;5001870;28;20025;-79
2021/12/27 11:18:19;;;;;;;130.80;33.50;;;2.80;99.90;;;;;;4982962;28;20030;-79
2021/12/27 11:20:56;;;;;;;78.55;27.17;;;2.90;99.90;;;;;;5021784;28;20685;-79
2021/12/27 11:23:23;;;;;;;84.60;27.65;;;2.80;99.90;;;;;;5006155;28;20371;-79
2021/12/27 11:26:24;;;;;;;87.47;28.70;;;2.90;99.90;;;;;;4982439;28;20040;-79
2021/12/27 11:28:50;;;;;;;75.10;28.83;;;2.90;99.90;;;;;;4987479;28;20049;-79
2021/12/27 11:31:19;;;;;;;102.75;29.10;;;2.90;99.90;;;;;;4983157;28;20046;-79
2021/12/27 11:34:18;;;;;;;126.78;31.80;;;2.90;99.90;;;;;;5033136;28;20045;-79
2021/12/27 11:36:49;;;;;;;88.68;28.20;;;2.90;99.90;;;;;;4960722;28;20080;-79
2021/12/27 11:39:25;;;;;;;89.53;29.33;;;2.90;99.90;;;;;;5014196;28;20029;-79
2021/12/27 11:42:06;;;;;;;85.57;28.35;;;2.80;99.90;;;;;;5006297;28;20051;-80
2021/12/27 11:44:45;;;;;;;101.32;30.13;;;2.80;99.90;;;;;;5021691;28;20308;-79
2021/12/27 11:47:23;;;;;;;98.95;29.73;;;2.90;99.90;;;;;;5008415;28;20045;-79
2021/12/27 11:49:52;;;;;;;73.60;28.98;;;2.80;99.90;;;;;;5035944;28;20111;-80
2021/12/27 11:52:28;;;;;;;104.95;31.42;;;2.90;99.90;;;;;;5012273;28;20045;-80
2021/12/27 11:55:01;;;;;;;92.20;28.25;;;2.80;99.90;;;;;;5016790;28;20252;-79
2021/12/27 11:57:45;;;;;;;113.85;29.65;;;2.80;99.90;;;;;;5017198;28;20033;-79
2021/12/27 12:00:32;;;;;;;146.93;34.47;;;2.90;99.90;;;;;;5006975;28;20441;-79
2021/12/27 12:03:03;;;;;;;85.57;27.52;;;2.90;99.90;;;;;;5024202;28;20069;-79
2021/12/27 12:05:55;;;;;;;71.30;25.27;;;2.90;99.90;;;;;;5011444;28;20040;-80
2021/12/27 12:08:49;;;;;;;88.20;28.02;;;2.90;99.90;;;;;;5012758;28;20044;-80
2021/12/27 12:11:15;;;;;;;76.63;27.65;;;3.10;99.90;;;;;;5012298;28;20065;-79
2021/12/27 12:13:47;;;;;;;82.80;27.40;;;3.20;99.90;;;;;;5011349;28;20103;-79
2021/12/27 12:16:14;;;;;;;99.28;30.02;;;3.20;99.90;;;;;;5037357;28;20037;-80
2021/12/27 12:19:03;;;;;;;73.88;27.48;;;3.20;99.90;;;;;;5019796;28;20064;-79
2021/12/27 12:21:39;;;;;;;87.75;28.95;;;3.30;99.90;;;;;;5011448;28;20045;-80
2021/12/27 12:24:10;;;;;;;113.47;30.58;;;3.30;99.90;;;;;;5010925;28;20484;-79
2021/12/27 12:26:56;;;;;;;110.68;34.25;;;3.40;99.90;;;;;;5019866;28;20052;-80
2021/12/27 12:29:22;;;;;;;;;;;3.50;99.90;;;;;;4998501;28;20040;-79
2021/12/27 12:32:00;;;;;;;142.95;30.80;;;3.60;99.90;;;;;;5014319;28;19974;-79
2021/12/27 12:34:26;;;;;;;77.68;28.67;;;3.40;99.90;;;;;;5019605;28;20088;-80
2021/12/27 12:36:55;;;;;;;120.88;30.90;;;3.40;99.90;;;;;;5010336;28;20106;-80
2021/12/27 12:39:23;;;;;;;112.40;28.85;;;3.30;99.90;;;;;;5017210;28;20060;-80
2021/12/27 12:41:50;;;;;;;125.53;30.92;;;3.30;99.90;;;;;;5007551;28;20045;-79
2021/12/27 12:44:18;;;;;;;98.80;29.17;;;3.30;99.90;;;;;;5009696;28;20249;-79